Terminal Aerodrome Forecast
Issued by NWS Birmingham, AL

Home | Current Version | Previous Version | Text Only | Print | Product List | Glossary On
Versions: 1 2 3 4 5 6 7 8 9 10 11 12 13
700
FTUS44 KBMX 061126
TAFBHM
TAF
KBHM 061126Z 0612/0712 35004KT P6SM BKN150=

USA.gov is the U.S. government's official web portal to all federal, state and local government web resources and services.